createdAt,value
2022-10-05T00:49:54.216Z,1.50
2022-10-05T00:52:53.309Z,1.70
2022-10-05T00:55:42.266Z,1.67
2022-10-05T00:58:28.433Z,1.80
2022-10-05T01:01:16.978Z,1.50
2022-10-05T01:04:21.237Z,1.70
2022-10-05T01:07:00.080Z,1.17
2022-10-05T01:09:49.356Z,1.40
2022-10-05T01:12:33.329Z,1.37
2022-10-05T01:15:07.187Z,1.10
2022-10-05T01:17:41.977Z,1.27
2022-10-05T01:20:28.219Z,1.50
2022-10-05T01:23:06.753Z,1.80
2022-10-05T01:25:45.711Z,1.50
2022-10-05T01:28:30.592Z,1.90
2022-10-05T01:31:13.403Z,1.80
2022-10-05T01:33:46.610Z,1.83
2022-10-05T01:36:26.119Z,2.12
2022-10-05T01:39:31.164Z,2.70
2022-10-05T01:42:09.954Z,2.47
2022-10-05T01:44:44.448Z,1.70
2022-10-05T01:47:27.197Z,1.62
2022-10-05T01:50:00.658Z,1.37
2022-10-05T01:52:56.330Z,1.30
2022-10-05T01:55:50.092Z,1.00
2022-10-05T01:58:34.258Z,1.33
2022-10-05T02:01:34.202Z,1.52
2022-10-05T02:04:10.812Z,1.30
2022-10-05T02:06:41.559Z,1.60
2022-10-05T02:09:22.486Z,1.53
2022-10-05T02:12:02.300Z,1.10
2022-10-05T02:14:38.600Z,1.70
2022-10-05T02:17:16.824Z,1.42
2022-10-05T02:19:51.481Z,1.67
2022-10-05T02:22:27.956Z,1.70
2022-10-05T02:24:59.001Z,2.08
2022-10-05T02:27:31.559Z,2.10
2022-10-05T02:30:06.594Z,1.80
2022-10-05T02:33:00.581Z,1.60
2022-10-05T02:35:28.113Z,2.50
2022-10-05T02:38:41.893Z,1.90
2022-10-05T02:41:12.127Z,2.40
2022-10-05T02:44:11.641Z,2.58
2022-10-05T02:46:58.235Z,2.83
2022-10-05T02:49:54.482Z,3.00
2022-10-05T02:52:27.428Z,2.67
2022-10-05T02:55:23.237Z,2.95
2022-10-05T02:58:13.961Z,2.80
2022-10-05T03:00:49.193Z,2.78
2022-10-05T03:03:22.971Z,2.63
2022-10-05T03:06:03.430Z,2.47
2022-10-05T03:08:35.943Z,3.17
2022-10-05T03:11:42.798Z,2.42
2022-10-05T03:14:22.989Z,2.58
2022-10-05T03:17:09.119Z,2.73
2022-10-05T03:19:58.481Z,3.45
2022-10-05T03:22:47.251Z,3.40
2022-10-05T03:25:28.007Z,3.03
2022-10-05T03:28:19.527Z,3.12
2022-10-05T03:31:05.547Z,3.07
2022-10-05T03:33:36.399Z,2.50
2022-10-05T03:36:23.181Z,2.22
2022-10-05T03:39:10.563Z,2.67
2022-10-05T03:41:49.109Z,2.47
2022-10-05T03:44:25.748Z,2.17
2022-10-05T03:46:58.881Z,2.50
2022-10-05T03:49:40.845Z,2.20
2022-10-05T03:52:16.380Z,2.25
2022-10-05T03:54:48.807Z,2.05
2022-10-05T03:57:20.198Z,1.80
2022-10-05T04:00:09.197Z,2.33
2022-10-05T04:02:49.322Z,1.77
2022-10-05T04:05:20.327Z,1.70
2022-10-05T04:08:07.132Z,1.90
2022-10-05T04:10:49.006Z,1.40
2022-10-05T04:13:29.555Z,1.65
2022-10-05T04:16:00.339Z,1.48
2022-10-05T04:18:32.682Z,1.40
2022-10-05T04:21:23.950Z,1.58
2022-10-05T04:23:57.745Z,1.67
2022-10-05T04:26:36.496Z,1.70
2022-10-05T04:29:42.989Z,1.50
2022-10-05T04:32:26.113Z,1.58
2022-10-05T04:35:25.088Z,1.50
2022-10-05T04:38:23.889Z,1.40
2022-10-05T04:41:12.761Z,1.80
2022-10-05T04:44:05.128Z,1.40
2022-10-05T04:46:51.416Z,1.98
2022-10-05T04:49:38.373Z,2.12
2022-10-05T04:52:25.664Z,1.23
2022-10-05T04:55:09.267Z,1.33
2022-10-05T04:57:46.792Z,1.87
2022-10-05T05:00:34.003Z,1.67
2022-10-05T05:03:16.074Z,1.52
2022-10-05T05:06:17.372Z,1.53
2022-10-05T05:09:09.096Z,1.80
2022-10-05T05:12:18.842Z,2.00
2022-10-05T05:14:55.477Z,1.77
2022-10-05T05:17:50.399Z,2.00
2022-10-05T05:20:22.843Z,1.77
2022-10-05T05:22:52.989Z,1.70
2022-10-05T05:25:30.289Z,2.33
2022-10-05T05:28:04.728Z,2.17
2022-10-05T05:31:03.747Z,1.92
2022-10-05T05:33:44.327Z,2.07
2022-10-05T05:36:11.956Z,1.92
2022-10-05T05:39:04.413Z,2.10
2022-10-05T05:41:44.780Z,1.87
2022-10-05T05:44:25.510Z,2.28
2022-10-05T05:47:03.996Z,2.20
2022-10-05T05:49:38.133Z,2.28
2022-10-05T05:52:26.091Z,2.00
2022-10-05T05:55:01.284Z,2.10
2022-10-05T05:57:30.651Z,2.53
2022-10-05T06:00:15.327Z,2.27
2022-10-05T06:02:49.277Z,2.35
2022-10-05T06:05:23.489Z,2.40
2022-10-05T06:07:53.041Z,2.60
2022-10-05T06:10:35.072Z,2.67
2022-10-05T06:13:07.284Z,2.33
2022-10-05T06:15:52.509Z,2.90
2022-10-05T06:18:21.698Z,2.30
2022-10-05T06:21:07.275Z,2.50
2022-10-05T06:23:42.493Z,2.60
2022-10-05T06:26:51.865Z,3.40
2022-10-05T06:29:23.847Z,2.60
2022-10-05T06:32:06.378Z,3.37
2022-10-05T06:34:37.341Z,3.05
2022-10-05T06:37:13.436Z,3.30
2022-10-05T06:40:07.880Z,3.03
2022-10-05T06:42:41.646Z,3.20
2022-10-05T06:45:26.069Z,3.33
2022-10-05T06:48:05.628Z,2.87
2022-10-05T06:50:43.337Z,3.28
2022-10-05T06:53:32.252Z,3.53
2022-10-05T06:56:09.028Z,3.40
2022-10-05T06:58:42.862Z,3.10
2022-10-05T07:01:15.289Z,5.70
2022-10-05T07:04:10.344Z,5.80
2022-10-05T07:06:47.630Z,5.30
2022-10-05T07:09:23.228Z,5.60
2022-10-05T07:12:09.074Z,5.05
2022-10-05T07:14:51.968Z,4.50
2022-10-05T07:17:46.062Z,4.62
2022-10-05T07:20:13.789Z,4.37
2022-10-05T07:23:03.365Z,4.18
2022-10-05T07:25:31.152Z,4.53
2022-10-05T07:28:13.573Z,4.35
2022-10-05T07:30:52.627Z,4.40
2022-10-05T07:33:45.899Z,4.10
2022-10-05T07:36:38.515Z,3.95
2022-10-05T07:39:42.130Z,4.20
2022-10-05T07:42:50.690Z,3.75
2022-10-05T07:45:27.938Z,3.05
2022-10-05T07:48:04.018Z,2.70
2022-10-05T07:50:43.684Z,3.28
2022-10-05T07:53:21.145Z,1.98
2022-10-05T07:55:54.576Z,2.00
2022-10-05T07:58:29.002Z,2.60
2022-10-05T08:01:22.645Z,2.60
2022-10-05T08:04:20.817Z,2.62
2022-10-05T08:06:57.286Z,2.83
2022-10-05T08:09:30.061Z,2.70
2022-10-05T08:12:25.547Z,2.22
2022-10-05T08:14:56.052Z,2.47
2022-10-05T08:17:38.569Z,3.12
2022-10-05T08:20:35.744Z,2.80
2022-10-05T08:23:38.682Z,3.85
2022-10-05T08:26:27.314Z,3.50
2022-10-05T08:29:16.644Z,3.60
2022-10-05T08:31:48.736Z,3.70
2022-10-05T08:34:45.798Z,3.45
2022-10-05T08:37:33.306Z,2.42
2022-10-05T08:40:26.940Z,2.80
2022-10-05T08:43:12.595Z,2.53
2022-10-05T08:46:11.212Z,2.12
2022-10-05T08:49:01.340Z,2.30
2022-10-05T08:51:48.613Z,2.40
2022-10-05T08:54:42.273Z,2.53
2022-10-05T08:57:47.235Z,3.27
2022-10-05T09:00:38.910Z,2.97
2022-10-05T09:03:19.087Z,3.12
2022-10-05T09:05:57.976Z,2.92
2022-10-05T09:08:31.696Z,2.40
2022-10-05T09:11:25.497Z,2.80
2022-10-05T09:13:59.035Z,2.80
2022-10-05T09:16:39.120Z,3.17
2022-10-05T09:19:24.838Z,3.15
2022-10-05T09:22:02.477Z,3.35
2022-10-05T09:24:58.213Z,3.20
2022-10-05T09:27:39.598Z,2.70
2022-10-05T09:30:28.825Z,2.97
2022-10-05T09:33:54.136Z,2.60
2022-10-05T09:36:27.424Z,2.53
2022-10-05T09:39:17.689Z,2.80
2022-10-05T09:42:32.597Z,2.47
2022-10-05T09:45:26.401Z,2.60
2022-10-05T09:48:26.364Z,2.80
2022-10-05T09:50:57.654Z,2.42
2022-10-05T09:54:10.725Z,3.27
2022-10-05T09:56:51.743Z,2.92
2022-10-05T10:00:08.627Z,3.60
2022-10-05T10:03:10.590Z,3.55
2022-10-05T10:05:44.780Z,3.70
2022-10-05T10:08:40.028Z,3.90
2022-10-05T10:11:29.813Z,4.03
2022-10-05T10:14:39.737Z,4.70
2022-10-05T10:17:32.588Z,4.47
2022-10-05T10:20:23.204Z,4.53
2022-10-05T10:23:17.497Z,4.27
2022-10-05T10:26:00.080Z,4.45
2022-10-05T10:28:55.332Z,3.95
2022-10-05T10:31:38.216Z,3.25
2022-10-05T10:34:45.307Z,3.60
2022-10-05T10:37:37.193Z,3.47
2022-10-05T10:40:29.695Z,3.90
2022-10-05T10:43:15.848Z,4.15
2022-10-05T10:46:25.738Z,3.55
2022-10-05T10:48:57.594Z,3.60
2022-10-05T10:51:56.453Z,3.83
2022-10-05T10:54:26.841Z,4.10
2022-10-05T10:57:00.555Z,4.60
2022-10-05T10:59:42.848Z,4.62
2022-10-05T11:02:37.300Z,4.22
2022-10-05T11:05:26.414Z,5.07
2022-10-05T11:08:15.745Z,3.70
2022-10-05T11:10:55.533Z,3.92
2022-10-05T11:13:30.887Z,3.40
2022-10-05T11:16:01.343Z,4.12
2022-10-05T11:18:51.207Z,3.60
2022-10-05T11:21:36.598Z,4.10
2022-10-05T11:24:19.560Z,5.10
2022-10-05T11:27:23.389Z,5.68
2022-10-05T11:30:03.198Z,5.65
2022-10-05T11:32:43.130Z,3.77
2022-10-05T11:35:40.292Z,4.22
2022-10-05T11:38:46.331Z,4.53
2022-10-05T11:41:52.489Z,3.83
2022-10-05T11:44:19.881Z,4.10
2022-10-05T11:47:24.645Z,3.37
2022-10-05T11:50:20.424Z,2.70
2022-10-05T11:52:51.685Z,2.47
2022-10-05T11:55:26.548Z,2.92
2022-10-05T11:58:00.751Z,3.08
2022-10-05T12:00:32.618Z,2.17
2022-10-05T12:03:10.902Z,2.40
2022-10-05T12:06:02.031Z,2.28
2022-10-05T12:08:39.184Z,2.10
2022-10-05T12:11:32.049Z,2.28
2022-10-05T12:14:26.378Z,1.67
2022-10-05T12:17:33.057Z,1.75
2022-10-05T12:20:12.502Z,1.87
2022-10-05T12:22:47.926Z,1.65
2022-10-05T12:25:27.715Z,1.65
2022-10-05T12:27:59.527Z,1.60
2022-10-05T12:30:51.830Z,1.70
2022-10-05T12:33:51.416Z,1.30
2022-10-05T12:37:09.521Z,1.50
2022-10-05T12:39:51.215Z,1.70
2022-10-05T12:42:31.309Z,1.50
2022-10-05T12:45:05.018Z,1.60
2022-10-05T12:47:53.505Z,1.73
2022-10-05T12:50:26.336Z,1.75
2022-10-05T12:53:11.108Z,2.22
2022-10-05T12:55:55.600Z,1.47
2022-10-05T12:58:46.187Z,1.60
2022-10-05T13:01:41.926Z,1.67
2022-10-05T13:04:34.317Z,1.37
2022-10-05T13:07:27.374Z,1.60
2022-10-05T13:09:58.568Z,1.47
2022-10-05T13:13:03.040Z,1.85
2022-10-05T13:15:53.447Z,1.50
2022-10-05T13:18:59.069Z,1.83
2022-10-05T13:21:52.140Z,1.95
2022-10-05T13:24:26.624Z,2.00
2022-10-05T13:27:00.750Z,1.87
2022-10-05T13:29:54.325Z,1.73
2022-10-05T13:32:27.811Z,1.60
2022-10-05T13:35:02.752Z,1.92
2022-10-05T13:37:34.278Z,1.43
2022-10-05T13:40:27.185Z,1.58
2022-10-05T13:43:06.709Z,1.83
2022-10-05T13:45:56.702Z,2.03
2022-10-05T13:48:57.241Z,1.83
2022-10-05T13:51:35.841Z,1.80
2022-10-05T13:54:15.238Z,1.70
2022-10-05T13:56:50.165Z,2.08
2022-10-05T13:59:25.341Z,1.60
2022-10-05T14:01:58.295Z,1.60
2022-10-05T14:04:42.501Z,1.67
2022-10-05T14:07:48.355Z,1.90
2022-10-05T14:10:37.488Z,1.70
2022-10-05T14:13:26.683Z,1.65
2022-10-05T14:16:04.446Z,1.70
2022-10-05T14:18:34.333Z,1.53
2022-10-05T14:21:18.791Z,1.87
2022-10-05T14:23:46.297Z,2.00
2022-10-05T14:26:19.062Z,1.48
2022-10-05T14:29:17.625Z,1.60
2022-10-05T14:32:00.124Z,1.67
2022-10-05T14:34:32.770Z,2.65
2022-10-05T14:37:20.103Z,1.77
2022-10-05T14:39:49.448Z,2.20
2022-10-05T14:42:23.567Z,1.73
2022-10-05T14:45:13.167Z,1.60
2022-10-05T14:48:12.277Z,2.00
2022-10-05T14:51:03.264Z,1.80
2022-10-05T14:53:39.220Z,2.50
2022-10-05T14:56:23.024Z,3.05
2022-10-05T14:59:04.294Z,2.90
2022-10-05T15:01:36.769Z,2.37
2022-10-05T15:04:16.711Z,2.12
2022-10-05T15:06:55.854Z,2.92
2022-10-05T15:09:57.997Z,3.45
2022-10-05T15:12:32.361Z,2.60
2022-10-05T15:15:06.976Z,2.78
2022-10-05T15:17:47.534Z,2.45
2022-10-05T15:20:24.627Z,2.00
2022-10-05T15:23:26.023Z,1.85
2022-10-05T15:26:11.904Z,1.37
2022-10-05T15:28:48.425Z,1.60
2022-10-05T15:31:43.567Z,1.80
2022-10-05T15:34:41.613Z,1.75
2022-10-05T15:37:26.562Z,1.80
2022-10-05T15:39:57.178Z,1.57
2022-10-05T15:42:38.316Z,1.80
2022-10-05T15:45:23.507Z,2.10
2022-10-05T15:48:00.679Z,2.00
2022-10-05T15:50:35.504Z,2.22
2022-10-05T15:53:17.680Z,2.03
2022-10-05T15:56:05.675Z,1.83
2022-10-05T15:58:51.324Z,2.17
2022-10-05T16:01:36.322Z,2.45
2022-10-05T16:04:18.528Z,2.10
2022-10-05T16:07:16.908Z,2.63
2022-10-05T16:10:11.310Z,2.37
2022-10-05T16:12:38.814Z,2.33
2022-10-05T16:15:28.697Z,2.92
2022-10-05T16:18:21.936Z,2.70
2022-10-05T16:21:00.013Z,2.70
2022-10-05T16:23:55.225Z,2.58
2022-10-05T16:27:03.997Z,2.47
2022-10-05T16:29:34.343Z,3.15
2022-10-05T16:32:16.328Z,3.12
2022-10-05T16:35:16.633Z,2.57
2022-10-05T16:38:05.763Z,2.90
2022-10-05T16:40:41.702Z,3.00
2022-10-05T16:43:25.766Z,3.08
2022-10-05T16:46:31.094Z,2.85
2022-10-05T16:49:42.920Z,2.50
2022-10-05T16:52:18.903Z,2.72
2022-10-05T16:54:50.389Z,3.05
2022-10-05T16:57:21.187Z,3.10
2022-10-05T17:00:13.455Z,2.67
2022-10-05T17:02:56.926Z,2.70
2022-10-05T17:05:55.718Z,2.80
2022-10-05T17:08:55.389Z,2.72
2022-10-05T17:11:57.205Z,2.65
2022-10-05T17:14:44.794Z,3.03
2022-10-05T17:17:33.887Z,3.30
2022-10-05T17:20:18.101Z,2.92
2022-10-05T17:22:52.375Z,3.40
2022-10-05T17:25:41.788Z,3.03
2022-10-05T17:28:18.919Z,2.97
2022-10-05T17:30:50.439Z,2.40
2022-10-05T17:33:31.429Z,2.72
2022-10-05T17:36:06.306Z,2.72
2022-10-05T17:38:34.512Z,3.28
2022-10-05T17:41:24.603Z,3.33
2022-10-05T17:44:19.118Z,2.70
2022-10-05T17:46:56.852Z,3.22
2022-10-05T17:50:12.123Z,2.55
2022-10-05T17:53:02.069Z,2.78
2022-10-05T17:55:34.127Z,3.03
2022-10-05T17:58:24.750Z,2.90
2022-10-05T18:00:58.957Z,3.12
2022-10-05T18:03:45.438Z,2.85
2022-10-05T18:06:30.951Z,2.70
2022-10-05T18:09:17.000Z,3.08
2022-10-05T18:11:49.374Z,3.20
2022-10-05T18:14:27.018Z,3.03
2022-10-05T18:17:13.620Z,2.75
2022-10-05T18:20:10.307Z,3.33
2022-10-05T18:22:37.764Z,3.17
2022-10-05T18:25:44.616Z,2.63
2022-10-05T18:28:26.203Z,2.60
2022-10-05T18:31:03.750Z,3.17
2022-10-05T18:33:43.144Z,3.45
2022-10-05T18:36:37.741Z,3.25
2022-10-05T18:39:20.921Z,3.40
2022-10-05T18:41:57.395Z,3.83
2022-10-05T18:44:39.668Z,4.03
2022-10-05T18:47:25.816Z,3.60
2022-10-05T18:50:24.416Z,3.40
2022-10-05T18:53:12.884Z,3.33
2022-10-05T18:55:56.488Z,3.10
2022-10-05T18:58:53.215Z,3.15
2022-10-05T19:01:34.491Z,2.90
2022-10-05T19:04:27.236Z,3.45
2022-10-05T19:07:21.188Z,2.93
2022-10-05T19:10:11.513Z,3.25
2022-10-05T19:12:53.973Z,3.10
2022-10-05T19:15:39.828Z,3.60
2022-10-05T19:18:25.263Z,3.05
2022-10-05T19:21:11.456Z,2.90
2022-10-05T19:24:05.128Z,3.20
2022-10-05T19:26:54.826Z,3.22
2022-10-05T19:29:53.106Z,3.08
2022-10-05T19:32:43.113Z,3.20
2022-10-05T19:35:16.706Z,3.33
2022-10-05T19:37:53.958Z,4.03
2022-10-05T19:40:28.107Z,3.42
2022-10-05T19:43:25.294Z,3.60
2022-10-05T19:46:05.566Z,3.47
2022-10-05T19:48:44.575Z,3.83
2022-10-05T19:51:16.052Z,3.30
2022-10-05T19:53:46.886Z,4.40
2022-10-05T19:56:22.821Z,3.72
2022-10-05T19:58:55.149Z,3.62
2022-10-05T20:01:24.958Z,3.73
2022-10-05T20:03:53.511Z,4.22
2022-10-05T20:06:22.537Z,3.72
2022-10-05T20:08:52.668Z,3.55
2022-10-05T20:11:27.215Z,3.28
2022-10-05T20:13:58.424Z,3.57
2022-10-05T20:19:50.915Z,3.20
2022-10-05T20:22:29.037Z,3.10
2022-10-05T20:24:58.375Z,3.30
2022-10-05T20:27:36.249Z,3.40
2022-10-05T20:30:05.265Z,3.12
2022-10-05T20:32:33.058Z,3.33
2022-10-05T20:35:00.618Z,3.20
2022-10-05T20:37:28.238Z,3.45
2022-10-05T20:39:56.064Z,3.13
2022-10-05T20:42:23.814Z,3.05
2022-10-05T20:44:56.524Z,3.45
2022-10-05T20:47:25.307Z,3.15
2022-10-05T20:49:55.103Z,3.10
2022-10-05T20:52:23.248Z,2.80
2022-10-05T20:54:53.868Z,2.72
2022-10-05T20:57:21.535Z,3.10
2022-10-05T20:59:49.053Z,2.80
2022-10-05T21:02:18.826Z,3.25
2022-10-05T21:04:47.663Z,2.97
2022-10-05T21:07:16.427Z,2.50
2022-10-05T21:09:46.530Z,3.10
2022-10-05T21:12:14.599Z,2.70
2022-10-05T21:14:42.432Z,2.55
2022-10-05T21:17:11.967Z,2.50
2022-10-05T21:19:40.450Z,2.90
2022-10-05T21:22:09.406Z,3.33
2022-10-05T21:24:38.551Z,2.65
2022-10-05T21:27:06.449Z,2.50
2022-10-05T21:29:34.378Z,3.00
2022-10-05T21:32:02.257Z,3.03
2022-10-05T21:34:29.744Z,2.60
2022-10-05T21:36:57.358Z,2.80
2022-10-05T21:39:25.634Z,2.87
2022-10-05T21:41:53.171Z,3.00
2022-10-05T21:44:20.630Z,2.72
2022-10-05T21:46:48.627Z,3.35
2022-10-05T21:49:19.487Z,3.03
2022-10-05T21:51:47.533Z,2.83
2022-10-05T21:54:18.283Z,2.50
2022-10-05T21:56:49.472Z,3.12
2022-10-05T21:59:20.071Z,2.90
2022-10-05T22:01:47.672Z,2.70
2022-10-05T22:04:15.640Z,2.85
2022-10-05T22:06:43.234Z,2.80
2022-10-05T22:09:10.993Z,2.90
2022-10-05T22:11:38.772Z,3.00
2022-10-05T22:14:07.576Z,2.97
2022-10-05T22:16:36.668Z,2.45
2022-10-05T22:19:05.955Z,2.57
2022-10-05T22:21:38.172Z,3.40
2022-10-05T22:24:06.144Z,2.67
2022-10-05T22:26:34.891Z,2.28
2022-10-05T22:29:02.876Z,2.55
2022-10-05T22:31:30.757Z,2.70
2022-10-05T22:33:58.276Z,2.72
2022-10-05T22:36:25.993Z,2.80
2022-10-05T22:38:54.430Z,2.70
2022-10-05T22:41:21.991Z,2.83
2022-10-05T22:43:50.827Z,2.60
2022-10-05T22:46:18.656Z,2.80
2022-10-05T22:48:46.244Z,3.08
2022-10-05T22:51:14.025Z,2.47
2022-10-05T22:53:41.767Z,3.08
2022-10-05T22:56:11.272Z,2.80
2022-10-05T22:58:39.506Z,3.12
2022-10-05T23:01:10.466Z,2.87
2022-10-05T23:03:38.152Z,3.22
2022-10-05T23:06:08.250Z,3.10
2022-10-05T23:08:37.317Z,2.90
2022-10-05T23:11:16.997Z,3.97
2022-10-05T23:13:44.985Z,2.58
2022-10-05T23:16:15.212Z,2.60
2022-10-05T23:18:43.588Z,3.12
2022-10-05T23:21:11.608Z,2.43
2022-10-05T23:23:40.638Z,2.75
2022-10-05T23:26:10.441Z,3.22
2022-10-05T23:28:46.415Z,2.92
2022-10-05T23:31:16.066Z,2.92
2022-10-05T23:33:44.477Z,2.60
2022-10-05T23:36:17.153Z,2.62
2022-10-05T23:38:45.424Z,2.80
2022-10-05T23:41:13.603Z,2.70
2022-10-05T23:43:41.920Z,3.10
2022-10-05T23:46:10.267Z,2.47
2022-10-05T23:48:40.690Z,2.85
2022-10-05T23:51:10.640Z,3.00
2022-10-05T23:53:38.464Z,2.58
2022-10-05T23:56:06.275Z,2.87
2022-10-05T23:58:33.921Z,3.03
